• Join FlightAware (Why Join?)
  • Login
  • US Flag 
08:46AM EDT


 

Airport Tracker/Info


-or-


 

Live Flight TrackerFlight Track Log ✈ AAY1030 ✈ 02-Oct-2013 ✈ KBLI - KOAK

Flight Track Log - Related Links

Times and Time Zones

All times are in EDT time to prevent confusion due to time zone crossing. See the AAY1030 flight status page for this flight to view local times or setup timezone preferences in your user account.

Time Position Orientation Groundspeed Altitude Reporting Facility
EDT Latitude Longitude Course Direction KTS MPH feet Rate Location/Type
05:54PM 48.7667 -122.5333 184° South 170 196 800  Level Vancouver Center
05:55PM 48.7167 -122.5667 204° Southwest 180 207 3,300 2,580 Climbing Vancouver Center
05:56PM 48.6500 -122.5833 189° South 230 265 6,000 2,580 Climbing Vancouver Center
05:57PM 48.0995 -122.7273 183° South  Level FlightAware Approximate
05:57PM 48.6069 -122.5994 194° South 267 307 8,200  Level Seattle Center
05:58PM 47.9828 -122.7333 180° South  Level FlightAware Approximate
05:58PM 48.5303 -122.6258 193° South 280 322 10,600  Level Seattle Center
05:59PM 47.8660 -122.7334 184° South  Level FlightAware Approximate
05:59PM 48.4403 -122.6569 193° South 320 368 11,800  Level Seattle Center
06:00PM 48.3408 -122.6928 193° South 368 423 14,500 2,400 Climbing Seattle Center
06:01PM 48.2397 -122.7264 192° South 371 427 16,700 2,160 Climbing Seattle Center
06:02PM 48.1408 -122.7803 200° South 375 432 18,900 2,220 Climbing Seattle Center
06:03PM 48.0439 -122.8458 204° Southwest 380 437 21,200 2,100 Climbing Seattle Center
06:04PM 47.9433 -122.9089 203° Southwest 387 445 23,200 1,800 Climbing Seattle Center
06:05PM 47.8186 -122.9892 203° Southwest 403 464 24,900 1,620 Climbing Seattle Center
06:06PM 47.7094 -123.0586 203° Southwest 421 484 26,600 1,680 Climbing Seattle Center
06:07PM 47.6014 -123.1267 203° Southwest 427 491 28,400 1,260 Climbing Seattle Center
06:08PM 47.4911 -123.1967 203° Southwest 430 495 29,200 900 Climbing Seattle Center
06:09PM 47.3786 -123.2667 203° Southwest 439 505 30,300 960 Climbing Seattle Center
06:10PM 47.2631 -123.3397 203° Southwest 450 518 31,200 780 Climbing Seattle Center
06:11PM 47.1464 -123.4061 201° Southwest 452 520 32,000 780 Climbing Seattle Center
06:12PM 47.0119 -123.3989 178° South 481 554 32,900 480 Climbing Seattle Center
06:13PM 46.8800 -123.3828 175° South 479 551 33,000  Climbing Seattle Center
06:14PM 46.7461 -123.3683 176° South 484 557 33,000  Level Seattle Center
06:15PM 46.5872 -123.3581 177° South 478 550 33,000  Level Seattle Center
06:16PM 46.4492 -123.3428 176° South 491 565 33,000  Level Seattle Center
06:17PM 46.3297 -123.3236 174° South 505 581 33,000  Level Seattle Center
06:18PM 46.1933 -123.3128 177° South 496 571 33,000  Level Seattle Center
06:19PM 46.0275 -123.2978 176° South 497 572 33,000  Level Seattle Center
06:20PM 45.8886 -123.2833 176° South 499 574 33,000  Level Seattle Center
06:21PM 45.7492 -123.2697 176° South 501 577 33,000  Level Seattle Center
06:22PM 45.6083 -123.2572 176° South 505 581 33,000  Level Seattle Center
06:23PM 45.4669 -123.2431 176° South 508 585 33,000  Level Seattle Center
06:24PM 45.3247 -123.2292 176° South 510 587 33,000  Level Seattle Center
06:25PM 45.1803 -123.2158 176° South 515 593 33,000  Level Seattle Center
06:26PM 45.0350 -123.2017 176° South 517 595 33,000  Level Seattle Center
06:27PM 44.8878 -123.1889 176° South 520 598 33,000  Level Seattle Center
06:28PM 44.7408 -123.1736 176° South 522 601 33,000  Level Seattle Center
06:29PM 44.5939 -123.1600 176° South 525 604 33,000  Level Seattle Center
06:30PM 44.4478 -123.1461 176° South 525 604 33,000 -60 Level Seattle Center
06:31PM 44.2983 -123.1311 176° South 534 615 32,900 -60 Descending Seattle Center
06:32PM 44.1481 -123.1175 176° South 540 621 32,900  Level Seattle Center
06:34PM 43.9925 -123.1033 176° South 539 620 33,000  Climbing Seattle Center
06:35PM 43.8419 -123.0900 176° South 540 621 33,000  Level Seattle Center
06:36PM 43.6919 -123.0772 176° South 541 623 33,000  Level Seattle Center
06:37PM 43.5419 -123.0636 176° South 539 620 33,000  Level Seattle Center
06:38PM 43.3933 -123.0503 176° South 536 617 33,000  Level Seattle Center
06:39PM 43.2442 -123.0367 176° South 538 619 33,000  Level Seattle Center
06:40PM 43.0969 -123.0233 176° South 531 611 33,000  Level Seattle Center
06:41PM 42.9217 -123.0083 176° South 525 604 33,000  Level Seattle Center
06:42PM 42.7775 -122.9939 176° South 521 600 33,000  Level Seattle Center
06:43PM 42.6525 -122.9811 176° South 520 598 33,000  Level Seattle Center
06:44PM 42.5092 -122.9686 176° South 519 597 33,000  Level Seattle Center
06:45PM 42.3367 -122.9539 176° South 520 598 33,000  Level Seattle Center
06:46PM 42.1947 -122.9428 177° South 516 594 33,000  Level Seattle Center
06:47PM 42.0542 -122.9306 176° South 511 588 33,000  Level Seattle Center
06:48PM 41.9128 -122.9186 176° South 511 588 33,000  Level Seattle Center
06:49PM 41.7756 -122.9064 176° South 503 579 33,000  Level Seattle Center
06:50PM 41.6347 -122.8947 176° South 507 583 33,000  Level Seattle Center
06:51PM 41.4961 -122.8828 176° South 505 581 33,000 -60 Level Seattle Center
06:52PM 41.3456 -122.8711 177° South 499 574 32,900 -60 Descending Seattle Center
06:53PM 41.2072 -122.8603 177° South 497 572 32,900  Level Seattle Center
06:54PM 41.0997 -122.8536 177° South 494 568 33,000  Climbing Oakland Center
06:55PM 40.9642 -122.8425 176° South 492 566 33,000  Level Oakland Center
06:56PM 40.8297 -122.8306 176° South 486 559 33,000  Level Oakland Center
06:57PM 40.6953 -122.8183 176° South 486 559 33,000  Level Oakland Center
06:58PM 40.5628 -122.8083 177° South 481 554 33,000  Level Oakland Center
06:59PM 40.4297 -122.7978 177° South 481 554 33,000  Level Oakland Center
07:00PM 40.2697 -122.7842 176° South 483 556 33,000  Level Oakland Center
07:01PM 40.1375 -122.7753 177° South 481 554 33,000  Level Oakland Center
07:02PM 40.0050 -122.7653 177° South 482 555 33,000  Level Oakland Center
07:03PM 39.8731 -122.7550 177° South 480 552 33,000  Level Oakland Center
07:04PM 39.7408 -122.7442 176° South 479 551 33,000  Level Oakland Center
07:05PM 39.6081 -122.7325 176° South 480 552 33,000 -1,080 Level Oakland Center
07:06PM 39.4500 -122.7200 177° South 474 545 30,900 -2,040 Descending Oakland Center
07:07PM 39.3211 -122.7097 176° South 468 539 28,900 -1,980 Descending Oakland Center
07:08PM 39.1981 -122.7003 177° South 455 524 26,900 -2,100 Descending Oakland Center
07:09PM 39.0672 -122.6914 177° South 439 505 24,700 -2,100 Descending Oakland Center
07:10PM 38.9494 -122.6808 176° South 430 495 22,700 -1,860 Descending Oakland Center
07:11PM 38.8469 -122.6733 177° South 414 476 20,900 -1,860 Descending Oakland Center
07:12PM 38.7383 -122.6644 176° South 397 457 19,000 -1,800 Descending Oakland Center
07:13PM 38.6336 -122.6567 177° South 384 442 17,300 -1,920 Descending Oakland Center
07:14PM 38.5136 -122.6469 176° South 366 421 15,100 -1,920 Descending Oakland Center
07:15PM 38.4167 -122.6286 172° South 356 410 13,400 -1,680 Descending Oakland Center
07:16PM 38.3231 -122.6111 172° South 346 398 11,700 -1,560 Descending Oakland Center
07:17PM 38.2314 -122.5944 172° South 337 388 10,200 -1,320 Descending Oakland Center
07:18PM 38.1475 -122.5786 172° South 316 364 9,100 -1,260 Descending Oakland Center
07:19PM 38.0669 -122.5631 171° South 298 343 7,700 -1,200 Descending Oakland Center
07:20PM 37.9983 -122.4997 144° Southeast 303 349 6,700 -960 Descending Oakland Center
07:21PM 37.9328 -122.4342 142° Southeast 297 342 5,800 -960 Descending Oakland Center
07:22PM 37.8667 -122.3667 141° Southeast 297 342 5,000 -480 Descending Northern Cal TRACON
07:23PM 37.8333 -122.3000 122° Southeast 287 330 5,000 -60 Level Northern Cal TRACON
07:24PM 37.7833 -122.2167 127° Southeast 290 334 4,900  Descending Northern Cal TRACON
07:25PM 37.7333 -122.1333 127° Southeast 233 268 5,000 -240 Climbing Northern Cal TRACON
07:26PM 37.7000 -122.0833 130° Southeast 231 266 4,500 -600 Descending Northern Cal TRACON
07:27PM 37.6667 -122.0167 122° Southeast 215 247 3,900 -600 Descending Northern Cal TRACON
07:28PM 37.6167 -122.0333 195° South 205 236 3,400 -720 Descending Northern Cal TRACON
07:29PM 37.6167 -122.0833 270° West 192 221 2,500 -900 Descending Northern Cal TRACON
07:30PM 37.6500 -122.1333 310° West 187 215 1,600 -900 Descending Northern Cal TRACON
07:31PM 37.6833 -122.1833 310° West 135 155 700 -900 Descending Northern Cal TRACON